sensor_id;sensor_type;location;lat;lon;timestamp;P1;durP1;ratioP1;P2;durP2;ratioP2
62523;SDS011;53689;56.878;60.672;2022-11-15T00:00:16;9.82;;;6.53;;
62523;SDS011;53689;56.878;60.672;2022-11-15T00:03:02;9.80;;;6.95;;
62523;SDS011;53689;56.878;60.672;2022-11-15T00:05:48;10.25;;;6.78;;
62523;SDS011;53689;56.878;60.672;2022-11-15T00:08:36;9.23;;;6.45;;
62523;SDS011;53689;56.878;60.672;2022-11-15T00:11:22;10.55;;;6.88;;
62523;SDS011;53689;56.878;60.672;2022-11-15T00:14:07;10.27;;;5.97;;
62523;SDS011;53689;56.878;60.672;2022-11-15T00:16:53;9.27;;;6.57;;
62523;SDS011;53689;56.878;60.672;2022-11-15T00:19:39;9.85;;;5.85;;
62523;SDS011;53689;56.878;60.672;2022-11-15T00:22:25;9.00;;;5.57;;
62523;SDS011;53689;56.878;60.672;2022-11-15T00:25:18;10.20;;;6.03;;
62523;SDS011;53689;56.878;60.672;2022-11-15T00:28:04;13.98;;;7.50;;
62523;SDS011;53689;56.878;60.672;2022-11-15T00:30:50;8.68;;;6.20;;
62523;SDS011;53689;56.878;60.672;2022-11-15T00:33:36;9.18;;;6.20;;
62523;SDS011;53689;56.878;60.672;2022-11-15T00:36:22;10.15;;;7.00;;
62523;SDS011;53689;56.878;60.672;2022-11-15T00:39:08;10.18;;;7.68;;
62523;SDS011;53689;56.878;60.672;2022-11-15T00:41:55;10.75;;;7.57;;
62523;SDS011;53689;56.878;60.672;2022-11-15T00:44:41;13.68;;;9.05;;
62523;SDS011;53689;56.878;60.672;2022-11-15T00:47:28;12.75;;;9.38;;
62523;SDS011;53689;56.878;60.672;2022-11-15T00:50:14;19.33;;;14.40;;
62523;SDS011;53689;56.878;60.672;2022-11-15T00:53:00;27.48;;;21.25;;
62523;SDS011;53689;56.878;60.672;2022-11-15T00:55:46;33.65;;;25.25;;
62523;SDS011;53689;56.878;60.672;2022-11-15T00:58:33;35.88;;;26.80;;
62523;SDS011;53689;56.878;60.672;2022-11-15T01:01:19;40.15;;;30.95;;
62523;SDS011;53689;56.878;60.672;2022-11-15T01:04:05;51.40;;;39.00;;
62523;SDS011;53689;56.878;60.672;2022-11-15T01:06:51;38.15;;;29.45;;
62523;SDS011;53689;56.878;60.672;2022-11-15T01:09:37;37.30;;;30.30;;
62523;SDS011;53689;56.878;60.672;2022-11-15T01:12:22;46.97;;;36.75;;
62523;SDS011;53689;56.878;60.672;2022-11-15T01:15:10;43.95;;;34.13;;
62523;SDS011;53689;56.878;60.672;2022-11-15T01:17:56;45.33;;;34.83;;
62523;SDS011;53689;56.878;60.672;2022-11-15T01:20:42;44.83;;;36.25;;
62523;SDS011;53689;56.878;60.672;2022-11-15T01:23:28;49.72;;;39.40;;
62523;SDS011;53689;56.878;60.672;2022-11-15T01:26:14;39.70;;;31.02;;
62523;SDS011;53689;56.878;60.672;2022-11-15T01:29:01;44.38;;;33.95;;
62523;SDS011;53689;56.878;60.672;2022-11-15T01:31:48;42.20;;;33.65;;
62523;SDS011;53689;56.878;60.672;2022-11-15T01:34:34;40.17;;;32.05;;
62523;SDS011;53689;56.878;60.672;2022-11-15T01:37:21;42.97;;;33.65;;
62523;SDS011;53689;56.878;60.672;2022-11-15T01:40:07;37.50;;;29.48;;
62523;SDS011;53689;56.878;60.672;2022-11-15T01:42:54;36.28;;;30.27;;
62523;SDS011;53689;56.878;60.672;2022-11-15T01:45:40;43.55;;;34.35;;
62523;SDS011;53689;56.878;60.672;2022-11-15T01:48:29;36.55;;;29.08;;
62523;SDS011;53689;56.878;60.672;2022-11-15T01:51:18;35.58;;;27.35;;
62523;SDS011;53689;56.878;60.672;2022-11-15T01:54:08;32.70;;;26.25;;
62523;SDS011;53689;56.878;60.672;2022-11-15T01:57:01;41.30;;;32.83;;
62523;SDS011;53689;56.878;60.672;2022-11-15T01:59:50;33.58;;;26.35;;
62523;SDS011;53689;56.878;60.672;2022-11-15T02:02:36;33.22;;;27.45;;
62523;SDS011;53689;56.878;60.672;2022-11-15T02:05:24;34.05;;;27.00;;
62523;SDS011;53689;56.878;60.672;2022-11-15T02:08:10;34.15;;;25.88;;
62523;SDS011;53689;56.878;60.672;2022-11-15T02:10:56;30.13;;;24.73;;
62523;SDS011;53689;56.878;60.672;2022-11-15T02:13:42;32.85;;;25.35;;
62523;SDS011;53689;56.878;60.672;2022-11-15T02:16:31;33.88;;;24.75;;
62523;SDS011;53689;56.878;60.672;2022-11-15T02:19:37;31.77;;;25.70;;
62523;SDS011;53689;56.878;60.672;2022-11-15T02:22:42;31.90;;;22.90;;
62523;SDS011;53689;56.878;60.672;2022-11-15T02:25:38;31.73;;;25.02;;
62523;SDS011;53689;56.878;60.672;2022-11-15T02:28:36;33.60;;;25.87;;
62523;SDS011;53689;56.878;60.672;2022-11-15T02:31:33;33.03;;;23.52;;
62523;SDS011;53689;56.878;60.672;2022-11-15T02:34:28;36.78;;;27.25;;
62523;SDS011;53689;56.878;60.672;2022-11-15T02:37:21;27.27;;;22.30;;
62523;SDS011;53689;56.878;60.672;2022-11-15T02:40:16;33.38;;;26.13;;
62523;SDS011;53689;56.878;60.672;2022-11-15T02:43:09;27.83;;;21.55;;
62523;SDS011;53689;56.878;60.672;2022-11-15T02:45:58;30.85;;;24.48;;
62523;SDS011;53689;56.878;60.672;2022-11-15T02:48:53;31.48;;;22.45;;
62523;SDS011;53689;56.878;60.672;2022-11-15T02:51:39;32.42;;;24.65;;
62523;SDS011;53689;56.878;60.672;2022-11-15T02:54:29;27.77;;;21.23;;
62523;SDS011;53689;56.878;60.672;2022-11-15T02:57:16;36.87;;;25.97;;
62523;SDS011;53689;56.878;60.672;2022-11-15T03:00:09;28.70;;;21.10;;
62523;SDS011;53689;56.878;60.672;2022-11-15T03:03:08;23.03;;;17.23;;
62523;SDS011;53689;56.878;60.672;2022-11-15T03:06:12;25.42;;;19.65;;
62523;SDS011;53689;56.878;60.672;2022-11-15T03:09:07;28.13;;;20.92;;
62523;SDS011;53689;56.878;60.672;2022-11-15T03:12:03;23.23;;;19.35;;
62523;SDS011;53689;56.878;60.672;2022-11-15T03:14:53;21.75;;;18.00;;
62523;SDS011;53689;56.878;60.672;2022-11-15T03:17:45;24.02;;;18.38;;
62523;SDS011;53689;56.878;60.672;2022-11-15T03:20:38;23.85;;;18.92;;
62523;SDS011;53689;56.878;60.672;2022-11-15T03:23:26;26.55;;;21.08;;
62523;SDS011;53689;56.878;60.672;2022-11-15T03:26:15;23.60;;;18.20;;
62523;SDS011;53689;56.878;60.672;2022-11-15T03:29:06;28.40;;;20.50;;
62523;SDS011;53689;56.878;60.672;2022-11-15T03:31:58;22.73;;;17.70;;
62523;SDS011;53689;56.878;60.672;2022-11-15T03:34:49;24.75;;;18.00;;
62523;SDS011;53689;56.878;60.672;2022-11-15T03:37:39;23.92;;;17.65;;
62523;SDS011;53689;56.878;60.672;2022-11-15T03:40:33;26.70;;;18.92;;
62523;SDS011;53689;56.878;60.672;2022-11-15T03:43:27;23.73;;;17.95;;
62523;SDS011;53689;56.878;60.672;2022-11-15T03:46:19;23.58;;;17.63;;
62523;SDS011;53689;56.878;60.672;2022-11-15T03:49:11;24.98;;;18.10;;
62523;SDS011;53689;56.878;60.672;2022-11-15T03:52:03;26.17;;;18.35;;
62523;SDS011;53689;56.878;60.672;2022-11-15T03:54:50;23.10;;;18.42;;
62523;SDS011;53689;56.878;60.672;2022-11-15T03:57:40;24.10;;;18.30;;
62523;SDS011;53689;56.878;60.672;2022-11-15T04:00:27;24.90;;;18.95;;
62523;SDS011;53689;56.878;60.672;2022-11-15T04:03:13;28.65;;;20.83;;
62523;SDS011;53689;56.878;60.672;2022-11-15T04:05:59;24.75;;;17.55;;
62523;SDS011;53689;56.878;60.672;2022-11-15T04:08:46;28.73;;;19.83;;
62523;SDS011;53689;56.878;60.672;2022-11-15T04:11:31;30.98;;;21.17;;
62523;SDS011;53689;56.878;60.672;2022-11-15T04:14:19;28.67;;;18.88;;
62523;SDS011;53689;56.878;60.672;2022-11-15T04:17:05;26.90;;;17.10;;
62523;SDS011;53689;56.878;60.672;2022-11-15T04:19:50;27.65;;;19.05;;
62523;SDS011;53689;56.878;60.672;2022-11-15T04:22:36;31.05;;;23.13;;
62523;SDS011;53689;56.878;60.672;2022-11-15T04:25:22;31.90;;;20.63;;
62523;SDS011;53689;56.878;60.672;2022-11-15T04:28:13;35.95;;;21.95;;
62523;SDS011;53689;56.878;60.672;2022-11-15T04:31:01;36.70;;;25.20;;
62523;SDS011;53689;56.878;60.672;2022-11-15T04:33:47;34.83;;;26.38;;
62523;SDS011;53689;56.878;60.672;2022-11-15T04:36:34;39.08;;;27.40;;
62523;SDS011;53689;56.878;60.672;2022-11-15T04:39:19;39.58;;;26.25;;
62523;SDS011;53689;56.878;60.672;2022-11-15T04:42:06;43.35;;;28.10;;
62523;SDS011;53689;56.878;60.672;2022-11-15T04:44:52;30.58;;;22.02;;
62523;SDS011;53689;56.878;60.672;2022-11-15T04:47:41;32.13;;;23.30;;
62523;SDS011;53689;56.878;60.672;2022-11-15T04:50:29;35.90;;;24.33;;
62523;SDS011;53689;56.878;60.672;2022-11-15T04:53:15;27.80;;;21.00;;
62523;SDS011;53689;56.878;60.672;2022-11-15T04:56:01;31.23;;;21.67;;
62523;SDS011;53689;56.878;60.672;2022-11-15T04:58:48;36.80;;;25.48;;
62523;SDS011;53689;56.878;60.672;2022-11-15T05:01:34;33.72;;;23.23;;
62523;SDS011;53689;56.878;60.672;2022-11-15T05:04:29;29.40;;;21.58;;
62523;SDS011;53689;56.878;60.672;2022-11-15T05:07:15;34.45;;;22.67;;
62523;SDS011;53689;56.878;60.672;2022-11-15T05:10:01;29.27;;;21.10;;
62523;SDS011;53689;56.878;60.672;2022-11-15T05:12:47;26.08;;;19.02;;
62523;SDS011;53689;56.878;60.672;2022-11-15T05:15:33;32.78;;;22.42;;
62523;SDS011;53689;56.878;60.672;2022-11-15T05:18:19;38.25;;;24.75;;
62523;SDS011;53689;56.878;60.672;2022-11-15T05:21:09;32.65;;;23.13;;
62523;SDS011;53689;56.878;60.672;2022-11-15T05:23:56;38.40;;;25.92;;
62523;SDS011;53689;56.878;60.672;2022-11-15T05:26:42;37.60;;;28.50;;
62523;SDS011;53689;56.878;60.672;2022-11-15T05:29:28;40.33;;;27.27;;
62523;SDS011;53689;56.878;60.672;2022-11-15T05:32:14;33.05;;;23.92;;
62523;SDS011;53689;56.878;60.672;2022-11-15T05:35:01;36.65;;;27.17;;
62523;SDS011;53689;56.878;60.672;2022-11-15T05:37:49;37.75;;;24.55;;
62523;SDS011;53689;56.878;60.672;2022-11-15T05:40:35;40.50;;;28.55;;
62523;SDS011;53689;56.878;60.672;2022-11-15T05:43:21;40.03;;;30.67;;
62523;SDS011;53689;56.878;60.672;2022-11-15T05:46:08;43.80;;;29.90;;
62523;SDS011;53689;56.878;60.672;2022-11-15T05:48:55;43.22;;;30.13;;
62523;SDS011;53689;56.878;60.672;2022-11-15T05:51:43;34.10;;;24.83;;
62523;SDS011;53689;56.878;60.672;2022-11-15T05:54:35;49.05;;;32.95;;
62523;SDS011;53689;56.878;60.672;2022-11-15T05:57:22;47.00;;;28.95;;
62523;SDS011;53689;56.878;60.672;2022-11-15T06:00:09;50.78;;;34.40;;
62523;SDS011;53689;56.878;60.672;2022-11-15T06:02:56;49.55;;;30.45;;
62523;SDS011;53689;56.878;60.672;2022-11-15T06:05:41;44.28;;;28.70;;
62523;SDS011;53689;56.878;60.672;2022-11-15T06:08:27;47.00;;;31.65;;
62523;SDS011;53689;56.878;60.672;2022-11-15T06:11:15;42.80;;;28.77;;
62523;SDS011;53689;56.878;60.672;2022-11-15T06:14:02;41.63;;;28.20;;
62523;SDS011;53689;56.878;60.672;2022-11-15T06:16:47;30.95;;;22.38;;
62523;SDS011;53689;56.878;60.672;2022-11-15T06:19:33;40.20;;;25.50;;
62523;SDS011;53689;56.878;60.672;2022-11-15T06:22:19;38.00;;;24.45;;
62523;SDS011;53689;56.878;60.672;2022-11-15T06:25:05;36.00;;;25.05;;
62523;SDS011;53689;56.878;60.672;2022-11-15T06:27:53;36.95;;;25.65;;
62523;SDS011;53689;56.878;60.672;2022-11-15T06:30:41;34.22;;;26.80;;
62523;SDS011;53689;56.878;60.672;2022-11-15T06:33:26;39.17;;;28.40;;
62523;SDS011;53689;56.878;60.672;2022-11-15T06:36:13;39.65;;;26.95;;
62523;SDS011;53689;56.878;60.672;2022-11-15T06:39:02;51.15;;;31.00;;
62523;SDS011;53689;56.878;60.672;2022-11-15T06:41:48;45.92;;;31.02;;
62523;SDS011;53689;56.878;60.672;2022-11-15T06:44:35;47.70;;;29.20;;
62523;SDS011;53689;56.878;60.672;2022-11-15T06:47:21;41.78;;;29.63;;
62523;SDS011;53689;56.878;60.672;2022-11-15T06:50:08;41.75;;;29.13;;
62523;SDS011;53689;56.878;60.672;2022-11-15T06:52:55;53.47;;;30.65;;
62523;SDS011;53689;56.878;60.672;2022-11-15T06:55:45;52.35;;;30.83;;
62523;SDS011;53689;56.878;60.672;2022-11-15T06:58:39;54.08;;;30.60;;
62523;SDS011;53689;56.878;60.672;2022-11-15T07:01:26;55.45;;;29.48;;
62523;SDS011;53689;56.878;60.672;2022-11-15T07:04:13;45.15;;;28.13;;
62523;SDS011;53689;56.878;60.672;2022-11-15T07:06:59;49.08;;;27.40;;
62523;SDS011;53689;56.878;60.672;2022-11-15T07:09:45;45.33;;;25.30;;
62523;SDS011;53689;56.878;60.672;2022-11-15T07:12:31;47.78;;;24.05;;
62523;SDS011;53689;56.878;60.672;2022-11-15T07:15:19;44.88;;;24.25;;
62523;SDS011;53689;56.878;60.672;2022-11-15T07:18:08;40.58;;;22.17;;
62523;SDS011;53689;56.878;60.672;2022-11-15T07:20:55;38.00;;;22.33;;
62523;SDS011;53689;56.878;60.672;2022-11-15T07:23:41;39.28;;;22.38;;
62523;SDS011;53689;56.878;60.672;2022-11-15T07:26:28;46.88;;;23.60;;
62523;SDS011;53689;56.878;60.672;2022-11-15T07:29:13;38.95;;;22.95;;
62523;SDS011;53689;56.878;60.672;2022-11-15T07:31:59;39.80;;;22.65;;
62523;SDS011;53689;56.878;60.672;2022-11-15T07:34:46;47.28;;;23.77;;
62523;SDS011;53689;56.878;60.672;2022-11-15T07:37:32;42.45;;;23.98;;
62523;SDS011;53689;56.878;60.672;2022-11-15T07:40:18;34.50;;;22.38;;
62523;SDS011;53689;56.878;60.672;2022-11-15T07:43:04;35.42;;;23.27;;
62523;SDS011;53689;56.878;60.672;2022-11-15T07:45:51;39.30;;;23.00;;
62523;SDS011;53689;56.878;60.672;2022-11-15T07:48:43;37.60;;;22.73;;
62523;SDS011;53689;56.878;60.672;2022-11-15T07:51:31;35.40;;;21.83;;
62523;SDS011;53689;56.878;60.672;2022-11-15T07:54:17;39.17;;;21.58;;
62523;SDS011;53689;56.878;60.672;2022-11-15T07:57:03;37.50;;;21.20;;
62523;SDS011;53689;56.878;60.672;2022-11-15T07:59:52;36.85;;;20.70;;
62523;SDS011;53689;56.878;60.672;2022-11-15T08:02:39;33.30;;;19.15;;
62523;SDS011;53689;56.878;60.672;2022-11-15T08:05:25;36.50;;;20.00;;
62523;SDS011;53689;56.878;60.672;2022-11-15T08:08:12;39.60;;;21.90;;
62523;SDS011;53689;56.878;60.672;2022-11-15T08:10:58;33.40;;;18.92;;
62523;SDS011;53689;56.878;60.672;2022-11-15T08:13:45;34.50;;;20.08;;
62523;SDS011;53689;56.878;60.672;2022-11-15T08:16:31;61.45;;;24.63;;
62523;SDS011;53689;56.878;60.672;2022-11-15T08:19:18;99.90;;;35.90;;
62523;SDS011;53689;56.878;60.672;2022-11-15T08:22:04;132.07;;;41.13;;
62523;SDS011;53689;56.878;60.672;2022-11-15T08:24:52;132.05;;;45.60;;
62523;SDS011;53689;56.878;60.672;2022-11-15T08:27:38;148.32;;;51.08;;
62523;SDS011;53689;56.878;60.672;2022-11-15T08:30:24;171.68;;;59.55;;
62523;SDS011;53689;56.878;60.672;2022-11-15T08:33:11;173.30;;;58.17;;
62523;SDS011;53689;56.878;60.672;2022-11-15T08:35:58;243.27;;;80.15;;
62523;SDS011;53689;56.878;60.672;2022-11-15T08:38:45;148.80;;;53.90;;
62523;SDS011;53689;56.878;60.672;2022-11-15T08:41:32;113.20;;;42.70;;
62523;SDS011;53689;56.878;60.672;2022-11-15T08:44:22;109.32;;;42.72;;
62523;SDS011;53689;56.878;60.672;2022-11-15T08:47:08;84.97;;;34.55;;
62523;SDS011;53689;56.878;60.672;2022-11-15T08:49:56;76.57;;;31.27;;
62523;SDS011;53689;56.878;60.672;2022-11-15T08:52:42;52.17;;;25.83;;
62523;SDS011;53689;56.878;60.672;2022-11-15T08:55:28;57.42;;;26.38;;
62523;SDS011;53689;56.878;60.672;2022-11-15T08:58:15;48.90;;;24.05;;
62523;SDS011;53689;56.878;60.672;2022-11-15T09:01:01;47.75;;;23.23;;
62523;SDS011;53689;56.878;60.672;2022-11-15T09:03:48;45.60;;;21.80;;
62523;SDS011;53689;56.878;60.672;2022-11-15T09:06:35;43.03;;;21.10;;
62523;SDS011;53689;56.878;60.672;2022-11-15T09:09:27;41.10;;;20.27;;
62523;SDS011;53689;56.878;60.672;2022-11-15T09:12:12;37.55;;;20.13;;
62523;SDS011;53689;56.878;60.672;2022-11-15T09:15:00;39.60;;;19.65;;
62523;SDS011;53689;56.878;60.672;2022-11-15T09:17:46;34.80;;;19.05;;
62523;SDS011;53689;56.878;60.672;2022-11-15T09:20:32;31.77;;;19.80;;
62523;SDS011;53689;56.878;60.672;2022-11-15T09:23:17;32.78;;;19.48;;
62523;SDS011;53689;56.878;60.672;2022-11-15T09:26:04;31.40;;;18.95;;
62523;SDS011;53689;56.878;60.672;2022-11-15T09:28:50;27.67;;;17.42;;
62523;SDS011;53689;56.878;60.672;2022-11-15T09:31:37;30.98;;;17.15;;
62523;SDS011;53689;56.878;60.672;2022-11-15T09:34:24;32.72;;;17.50;;
62523;SDS011;53689;56.878;60.672;2022-11-15T09:37:09;27.00;;;17.83;;
62523;SDS011;53689;56.878;60.672;2022-11-15T09:39:55;27.70;;;17.00;;
62523;SDS011;53689;56.878;60.672;2022-11-15T09:42:51;30.20;;;16.80;;
62523;SDS011;53689;56.878;60.672;2022-11-15T09:45:48;29.25;;;17.65;;
62523;SDS011;53689;56.878;60.672;2022-11-15T09:48:58;26.73;;;16.55;;
62523;SDS011;53689;56.878;60.672;2022-11-15T09:51:47;45.08;;;23.13;;
62523;SDS011;53689;56.878;60.672;2022-11-15T09:54:21;372.65;;;147.50;;
62523;SDS011;53689;56.878;60.672;2022-11-15T09:57:14;744.88;;;329.33;;
62523;SDS011;53689;56.878;60.672;2022-11-15T09:59:58;895.92;;;424.88;;
62523;SDS011;53689;56.878;60.672;2022-11-15T10:03:08;1132.90;;;565.08;;
62523;SDS011;53689;56.878;60.672;2022-11-15T10:05:40;1096.70;;;564.50;;
62523;SDS011;53689;56.878;60.672;2022-11-15T10:08:16;825.47;;;422.40;;
62523;SDS011;53689;56.878;60.672;2022-11-15T10:10:52;895.13;;;471.95;;
62523;SDS011;53689;56.878;60.672;2022-11-15T10:13:44;921.13;;;493.35;;
62523;SDS011;53689;56.878;60.672;2022-11-15T10:16:16;825.42;;;438.02;;
62523;SDS011;53689;56.878;60.672;2022-11-15T10:19:01;884.50;;;462.38;;
62523;SDS011;53689;56.878;60.672;2022-11-15T10:21:37;809.45;;;430.65;;
62523;SDS011;53689;56.878;60.672;2022-11-15T10:24:17;646.97;;;327.98;;
62523;SDS011;53689;56.878;60.672;2022-11-15T10:26:47;569.45;;;286.67;;
62523;SDS011;53689;56.878;60.672;2022-11-15T10:29:17;542.08;;;264.95;;
62523;SDS011;53689;56.878;60.672;2022-11-15T10:31:53;473.73;;;217.38;;
62523;SDS011;53689;56.878;60.672;2022-11-15T10:34:21;378.95;;;162.50;;
62523;SDS011;53689;56.878;60.672;2022-11-15T10:36:55;330.08;;;142.02;;
62523;SDS011;53689;56.878;60.672;2022-11-15T10:39:24;244.88;;;104.72;;
62523;SDS011;53689;56.878;60.672;2022-11-15T10:41:52;233.55;;;99.07;;
62523;SDS011;53689;56.878;60.672;2022-11-15T10:44:21;221.90;;;88.63;;
62523;SDS011;53689;56.878;60.672;2022-11-15T10:47:04;161.13;;;67.38;;
62523;SDS011;53689;56.878;60.672;2022-11-15T10:49:53;133.25;;;57.92;;
62523;SDS011;53689;56.878;60.672;2022-11-15T10:52:26;129.45;;;56.42;;
62523;SDS011;53689;56.878;60.672;2022-11-15T10:54:56;135.43;;;58.90;;
62523;SDS011;53689;56.878;60.672;2022-11-15T10:57:29;107.55;;;49.20;;
62523;SDS011;53689;56.878;60.672;2022-11-15T11:00:00;128.82;;;57.78;;
62523;SDS011;53689;56.878;60.672;2022-11-15T11:02:31;107.75;;;48.78;;
62523;SDS011;53689;56.878;60.672;2022-11-15T11:05:01;95.63;;;42.83;;
62523;SDS011;53689;56.878;60.672;2022-11-15T11:07:32;89.15;;;40.92;;
62523;SDS011;53689;56.878;60.672;2022-11-15T11:10:03;81.18;;;37.88;;
62523;SDS011;53689;56.878;60.672;2022-11-15T11:12:53;80.68;;;38.45;;
62523;SDS011;53689;56.878;60.672;2022-11-15T11:15:20;78.30;;;36.00;;
62523;SDS011;53689;56.878;60.672;2022-11-15T11:17:57;70.90;;;34.67;;
62523;SDS011;53689;56.878;60.672;2022-11-15T11:20:33;74.55;;;35.47;;
62523;SDS011;53689;56.878;60.672;2022-11-15T11:26:01;60.65;;;31.20;;
62523;SDS011;53689;56.878;60.672;2022-11-15T11:28:44;63.50;;;31.05;;
62523;SDS011;53689;56.878;60.672;2022-11-15T11:31:32;69.32;;;32.08;;
62523;SDS011;53689;56.878;60.672;2022-11-15T11:34:09;68.45;;;30.67;;
62523;SDS011;53689;56.878;60.672;2022-11-15T11:36:47;60.55;;;30.58;;
62523;SDS011;53689;56.878;60.672;2022-11-15T11:39:24;59.60;;;29.05;;
62523;SDS011;53689;56.878;60.672;2022-11-15T11:42:01;54.38;;;28.42;;
62523;SDS011;53689;56.878;60.672;2022-11-15T11:44:37;58.97;;;30.33;;
62523;SDS011;53689;56.878;60.672;2022-11-15T11:47:14;58.45;;;28.48;;
62523;SDS011;53689;56.878;60.672;2022-11-15T11:49:50;58.75;;;28.55;;
62523;SDS011;53689;56.878;60.672;2022-11-15T11:52:22;62.55;;;29.95;;
62523;SDS011;53689;56.878;60.672;2022-11-15T11:54:58;53.90;;;28.15;;
62523;SDS011;53689;56.878;60.672;2022-11-15T11:57:32;55.58;;;28.35;;
62523;SDS011;53689;56.878;60.672;2022-11-15T12:00:12;51.15;;;27.58;;
62523;SDS011;53689;56.878;60.672;2022-11-15T12:02:44;49.72;;;26.88;;
62523;SDS011;53689;56.878;60.672;2022-11-15T12:05:20;50.20;;;28.02;;
62523;SDS011;53689;56.878;60.672;2022-11-15T12:07:58;48.63;;;25.88;;
62523;SDS011;53689;56.878;60.672;2022-11-15T12:10:33;35.55;;;19.35;;
62523;SDS011;53689;56.878;60.672;2022-11-15T12:13:02;39.97;;;21.13;;
62523;SDS011;53689;56.878;60.672;2022-11-15T12:15:36;50.28;;;25.58;;
62523;SDS011;53689;56.878;60.672;2022-11-15T12:18:10;40.03;;;21.45;;
62523;SDS011;53689;56.878;60.672;2022-11-15T12:20:42;44.85;;;24.33;;
62523;SDS011;53689;56.878;60.672;2022-11-15T12:23:21;42.78;;;22.50;;
62523;SDS011;53689;56.878;60.672;2022-11-15T12:25:54;48.08;;;23.05;;
62523;SDS011;53689;56.878;60.672;2022-11-15T12:28:28;47.00;;;23.08;;
62523;SDS011;53689;56.878;60.672;2022-11-15T12:31:04;41.45;;;20.95;;
62523;SDS011;53689;56.878;60.672;2022-11-15T12:33:42;44.88;;;22.90;;
62523;SDS011;53689;56.878;60.672;2022-11-15T12:36:12;45.70;;;22.90;;
62523;SDS011;53689;56.878;60.672;2022-11-15T12:41:30;50.58;;;22.27;;
62523;SDS011;53689;56.878;60.672;2022-11-15T12:43:58;44.08;;;22.10;;
62523;SDS011;53689;56.878;60.672;2022-11-15T12:49:43;37.83;;;20.25;;
62523;SDS011;53689;56.878;60.672;2022-11-15T12:52:12;37.75;;;19.95;;
62523;SDS011;53689;56.878;60.672;2022-11-15T12:54:56;40.03;;;20.02;;
62523;SDS011;53689;56.878;60.672;2022-11-15T12:57:33;37.25;;;18.88;;
62523;SDS011;53689;56.878;60.672;2022-11-15T13:00:05;33.67;;;17.25;;
62523;SDS011;53689;56.878;60.672;2022-11-15T13:03:16;34.58;;;17.30;;
62523;SDS011;53689;56.878;60.672;2022-11-15T13:05:55;36.53;;;18.13;;
62523;SDS011;53689;56.878;60.672;2022-11-15T13:08:42;35.80;;;17.52;;
62523;SDS011;53689;56.878;60.672;2022-11-15T13:14:43;35.53;;;19.08;;
62523;SDS011;53689;56.878;60.672;2022-11-15T13:17:25;35.53;;;18.55;;
62523;SDS011;53689;56.878;60.672;2022-11-15T13:19:59;33.95;;;16.95;;
62523;SDS011;53689;56.878;60.672;2022-11-15T13:22:37;33.30;;;16.92;;
62523;SDS011;53689;56.878;60.672;2022-11-15T13:25:13;32.28;;;17.92;;
62523;SDS011;53689;56.878;60.672;2022-11-15T13:27:43;28.30;;;16.45;;
62523;SDS011;53689;56.878;60.672;2022-11-15T13:30:14;30.25;;;17.00;;
62523;SDS011;53689;56.878;60.672;2022-11-15T13:32:48;28.95;;;16.42;;
62523;SDS011;53689;56.878;60.672;2022-11-15T13:35:19;27.27;;;15.52;;
62523;SDS011;53689;56.878;60.672;2022-11-15T13:37:48;38.90;;;16.33;;
62523;SDS011;53689;56.878;60.672;2022-11-15T13:40:19;33.65;;;15.75;;
62523;SDS011;53689;56.878;60.672;2022-11-15T13:42:51;30.90;;;15.93;;
62523;SDS011;53689;56.878;60.672;2022-11-15T13:45:20;30.05;;;15.77;;
62523;SDS011;53689;56.878;60.672;2022-11-15T13:47:51;30.77;;;16.67;;
62523;SDS011;53689;56.878;60.672;2022-11-15T13:50:21;25.95;;;14.82;;
62523;SDS011;53689;56.878;60.672;2022-11-15T13:52:52;26.20;;;15.30;;
62523;SDS011;53689;56.878;60.672;2022-11-15T13:55:20;28.27;;;15.15;;
62523;SDS011;53689;56.878;60.672;2022-11-15T14:00:26;26.20;;;14.98;;
62523;SDS011;53689;56.878;60.672;2022-11-15T14:03:05;30.02;;;14.73;;
62523;SDS011;53689;56.878;60.672;2022-11-15T14:05:38;31.08;;;15.10;;
62523;SDS011;53689;56.878;60.672;2022-11-15T14:08:12;27.25;;;15.27;;
62523;SDS011;53689;56.878;60.672;2022-11-15T14:11:04;27.73;;;14.05;;
62523;SDS011;53689;56.878;60.672;2022-11-15T14:13:33;30.75;;;15.98;;
62523;SDS011;53689;56.878;60.672;2022-11-15T14:16:19;25.20;;;13.95;;
62523;SDS011;53689;56.878;60.672;2022-11-15T14:18:48;24.77;;;14.05;;
62523;SDS011;53689;56.878;60.672;2022-11-15T14:21:17;23.75;;;13.93;;
62523;SDS011;53689;56.878;60.672;2022-11-15T14:23:46;26.52;;;14.98;;
62523;SDS011;53689;56.878;60.672;2022-11-15T14:26:26;25.02;;;14.32;;
62523;SDS011;53689;56.878;60.672;2022-11-15T14:28:55;25.70;;;14.10;;
62523;SDS011;53689;56.878;60.672;2022-11-15T14:31:24;20.73;;;13.52;;
62523;SDS011;53689;56.878;60.672;2022-11-15T14:33:52;27.53;;;13.80;;
62523;SDS011;53689;56.878;60.672;2022-11-15T14:36:20;25.35;;;14.10;;
62523;SDS011;53689;56.878;60.672;2022-11-15T14:38:47;27.10;;;15.73;;
62523;SDS011;53689;56.878;60.672;2022-11-15T14:41:19;22.90;;;13.02;;
62523;SDS011;53689;56.878;60.672;2022-11-15T14:43:47;23.52;;;13.30;;
62523;SDS011;53689;56.878;60.672;2022-11-15T14:46:16;24.38;;;13.10;;
62523;SDS011;53689;56.878;60.672;2022-11-15T14:48:45;22.77;;;13.10;;
62523;SDS011;53689;56.878;60.672;2022-11-15T14:51:13;25.65;;;12.98;;
62523;SDS011;53689;56.878;60.672;2022-11-15T14:53:43;27.63;;;13.30;;
62523;SDS011;53689;56.878;60.672;2022-11-15T14:56:12;21.30;;;12.52;;
62523;SDS011;53689;56.878;60.672;2022-11-15T14:58:40;24.27;;;13.13;;
62523;SDS011;53689;56.878;60.672;2022-11-15T15:01:10;21.73;;;11.85;;
62523;SDS011;53689;56.878;60.672;2022-11-15T15:03:44;18.85;;;10.98;;
62523;SDS011;53689;56.878;60.672;2022-11-15T15:06:12;23.20;;;13.13;;
62523;SDS011;53689;56.878;60.672;2022-11-15T15:08:44;20.25;;;11.95;;
62523;SDS011;53689;56.878;60.672;2022-11-15T15:11:12;19.88;;;11.38;;
62523;SDS011;53689;56.878;60.672;2022-11-15T15:16:08;19.05;;;11.27;;
62523;SDS011;53689;56.878;60.672;2022-11-15T15:18:35;23.13;;;11.85;;
62523;SDS011;53689;56.878;60.672;2022-11-15T15:21:12;22.52;;;11.65;;
62523;SDS011;53689;56.878;60.672;2022-11-15T15:23:45;22.20;;;12.48;;
62523;SDS011;53689;56.878;60.672;2022-11-15T15:26:13;20.85;;;11.40;;
62523;SDS011;53689;56.878;60.672;2022-11-15T15:28:41;19.98;;;10.55;;
62523;SDS011;53689;56.878;60.672;2022-11-15T15:31:08;16.52;;;10.90;;
62523;SDS011;53689;56.878;60.672;2022-11-15T15:33:36;18.95;;;10.18;;
62523;SDS011;53689;56.878;60.672;2022-11-15T15:36:07;18.05;;;10.02;;
62523;SDS011;53689;56.878;60.672;2022-11-15T15:38:37;19.10;;;9.38;;
62523;SDS011;53689;56.878;60.672;2022-11-15T15:41:07;20.95;;;10.43;;
62523;SDS011;53689;56.878;60.672;2022-11-15T15:43:37;20.58;;;10.18;;
62523;SDS011;53689;56.878;60.672;2022-11-15T15:46:04;21.27;;;9.77;;
62523;SDS011;53689;56.878;60.672;2022-11-15T15:48:34;17.30;;;9.80;;
62523;SDS011;53689;56.878;60.672;2022-11-15T15:51:02;17.27;;;9.63;;
62523;SDS011;53689;56.878;60.672;2022-11-15T15:53:41;18.92;;;9.40;;